sensor_id;sensor_type;location;lat;lon;timestamp;P1;durP1;ratioP1;P2;durP2;ratioP2
20443;SDS011;10381;53.730;10.010;2023-04-24T00:02:53;347.87;;;315.97;;
20443;SDS011;10381;53.730;10.010;2023-04-24T00:06:56;355.67;;;322.52;;
20443;SDS011;10381;53.730;10.010;2023-04-24T00:10:59;353.70;;;320.65;;
20443;SDS011;10381;53.730;10.010;2023-04-24T00:15:00;369.92;;;336.10;;
20443;SDS011;10381;53.730;10.010;2023-04-24T00:19:00;342.33;;;311.45;;
20443;SDS011;10381;53.730;10.010;2023-04-24T00:23:01;338.17;;;307.60;;
20443;SDS011;10381;53.730;10.010;2023-04-24T00:27:01;324.53;;;294.70;;
20443;SDS011;10381;53.730;10.010;2023-04-24T00:31:02;310.15;;;281.45;;
20443;SDS011;10381;53.730;10.010;2023-04-24T00:35:03;309.73;;;280.58;;
20443;SDS011;10381;53.730;10.010;2023-04-24T00:39:03;313.05;;;284.48;;
20443;SDS011;10381;53.730;10.010;2023-04-24T00:43:04;288.73;;;261.80;;
20443;SDS011;10381;53.730;10.010;2023-04-24T00:47:04;286.92;;;260.00;;
20443;SDS011;10381;53.730;10.010;2023-04-24T00:51:05;264.05;;;239.85;;
20443;SDS011;10381;53.730;10.010;2023-04-24T00:55:06;290.42;;;263.85;;
20443;SDS011;10381;53.730;10.010;2023-04-24T00:59:07;271.30;;;246.18;;
20443;SDS011;10381;53.730;10.010;2023-04-24T01:03:07;279.90;;;252.75;;
20443;SDS011;10381;53.730;10.010;2023-04-24T01:07:08;274.75;;;248.77;;
20443;SDS011;10381;53.730;10.010;2023-04-24T01:11:11;268.35;;;243.48;;
20443;SDS011;10381;53.730;10.010;2023-04-24T01:15:11;258.67;;;234.38;;
20443;SDS011;10381;53.730;10.010;2023-04-24T01:19:11;268.53;;;243.07;;
20443;SDS011;10381;53.730;10.010;2023-04-24T01:23:14;262.75;;;237.82;;
20443;SDS011;10381;53.730;10.010;2023-04-24T01:27:15;263.85;;;239.23;;
20443;SDS011;10381;53.730;10.010;2023-04-24T01:31:15;248.07;;;224.63;;
20443;SDS011;10381;53.730;10.010;2023-04-24T01:35:16;233.63;;;211.50;;
20443;SDS011;10381;53.730;10.010;2023-04-24T01:39:16;246.30;;;223.07;;
20443;SDS011;10381;53.730;10.010;2023-04-24T01:43:17;258.77;;;234.43;;
20443;SDS011;10381;53.730;10.010;2023-04-24T01:47:18;249.02;;;224.82;;
20443;SDS011;10381;53.730;10.010;2023-04-24T01:51:18;245.68;;;222.38;;
20443;SDS011;10381;53.730;10.010;2023-04-24T01:55:19;237.40;;;214.77;;
20443;SDS011;10381;53.730;10.010;2023-04-24T01:59:19;235.75;;;213.05;;
20443;SDS011;10381;53.730;10.010;2023-04-24T02:03:21;236.15;;;213.80;;
20443;SDS011;10381;53.730;10.010;2023-04-24T02:07:21;229.60;;;207.60;;
20443;SDS011;10381;53.730;10.010;2023-04-24T02:11:22;236.20;;;213.63;;
20443;SDS011;10381;53.730;10.010;2023-04-24T02:15:22;231.33;;;209.30;;
20443;SDS011;10381;53.730;10.010;2023-04-24T02:19:22;224.00;;;203.00;;
20443;SDS011;10381;53.730;10.010;2023-04-24T02:23:23;213.23;;;192.80;;
20443;SDS011;10381;53.730;10.010;2023-04-24T02:27:23;211.60;;;191.75;;
20443;SDS011;10381;53.730;10.010;2023-04-24T02:31:24;190.32;;;172.65;;
20443;SDS011;10381;53.730;10.010;2023-04-24T02:35:24;188.97;;;171.63;;
20443;SDS011;10381;53.730;10.010;2023-04-24T02:39:25;173.13;;;156.73;;
20443;SDS011;10381;53.730;10.010;2023-04-24T02:43:26;181.50;;;164.83;;
20443;SDS011;10381;53.730;10.010;2023-04-24T02:47:26;165.68;;;150.35;;
20443;SDS011;10381;53.730;10.010;2023-04-24T02:51:26;145.23;;;131.63;;
20443;SDS011;10381;53.730;10.010;2023-04-24T02:55:27;131.10;;;119.27;;
20443;SDS011;10381;53.730;10.010;2023-04-24T02:59:27;115.97;;;105.47;;
20443;SDS011;10381;53.730;10.010;2023-04-24T03:03:28;121.57;;;110.47;;
20443;SDS011;10381;53.730;10.010;2023-04-24T03:07:29;119.18;;;108.43;;
20443;SDS011;10381;53.730;10.010;2023-04-24T03:11:29;120.78;;;109.45;;
20443;SDS011;10381;53.730;10.010;2023-04-24T03:15:29;125.97;;;114.23;;
20443;SDS011;10381;53.730;10.010;2023-04-24T03:19:30;115.17;;;104.43;;
20443;SDS011;10381;53.730;10.010;2023-04-24T03:23:30;115.87;;;105.27;;
20443;SDS011;10381;53.730;10.010;2023-04-24T03:27:30;116.32;;;105.35;;
20443;SDS011;10381;53.730;10.010;2023-04-24T03:31:31;109.15;;;98.97;;
20443;SDS011;10381;53.730;10.010;2023-04-24T03:35:31;105.47;;;95.63;;
20443;SDS011;10381;53.730;10.010;2023-04-24T03:39:32;104.95;;;95.32;;
20443;SDS011;10381;53.730;10.010;2023-04-24T03:43:32;99.03;;;89.93;;
20443;SDS011;10381;53.730;10.010;2023-04-24T03:47:34;87.60;;;79.53;;
20443;SDS011;10381;53.730;10.010;2023-04-24T03:51:34;82.18;;;74.45;;
20443;SDS011;10381;53.730;10.010;2023-04-24T03:55:35;83.97;;;75.50;;
20443;SDS011;10381;53.730;10.010;2023-04-24T03:59:35;83.35;;;75.78;;
20443;SDS011;10381;53.730;10.010;2023-04-24T04:03:36;81.97;;;74.57;;
20443;SDS011;10381;53.730;10.010;2023-04-24T04:07:36;77.93;;;70.70;;
20443;SDS011;10381;53.730;10.010;2023-04-24T04:11:36;72.80;;;66.17;;
20443;SDS011;10381;53.730;10.010;2023-04-24T04:15:36;72.13;;;65.63;;
20443;SDS011;10381;53.730;10.010;2023-04-24T04:19:39;64.28;;;58.63;;
20443;SDS011;10381;53.730;10.010;2023-04-24T04:23:39;58.70;;;53.67;;
20443;SDS011;10381;53.730;10.010;2023-04-24T04:27:39;44.65;;;40.65;;
20443;SDS011;10381;53.730;10.010;2023-04-24T04:31:41;49.50;;;41.88;;
20443;SDS011;10381;53.730;10.010;2023-04-24T04:35:41;39.63;;;36.15;;
20443;SDS011;10381;53.730;10.010;2023-04-24T04:39:42;25.85;;;23.55;;
20443;SDS011;10381;53.730;10.010;2023-04-24T04:43:42;25.47;;;23.17;;
20443;SDS011;10381;53.730;10.010;2023-04-24T04:47:43;22.27;;;20.37;;
20443;SDS011;10381;53.730;10.010;2023-04-24T04:51:44;19.58;;;17.75;;
20443;SDS011;10381;53.730;10.010;2023-04-24T04:55:44;16.88;;;15.38;;
20443;SDS011;10381;53.730;10.010;2023-04-24T04:59:46;17.83;;;15.77;;
20443;SDS011;10381;53.730;10.010;2023-04-24T05:03:47;18.55;;;16.83;;
20443;SDS011;10381;53.730;10.010;2023-04-24T05:07:47;18.20;;;16.60;;
20443;SDS011;10381;53.730;10.010;2023-04-24T05:11:47;20.97;;;16.13;;
20443;SDS011;10381;53.730;10.010;2023-04-24T05:15:47;18.42;;;16.83;;
20443;SDS011;10381;53.730;10.010;2023-04-24T05:19:48;18.75;;;16.95;;
20443;SDS011;10381;53.730;10.010;2023-04-24T05:23:48;18.07;;;16.47;;
20443;SDS011;10381;53.730;10.010;2023-04-24T05:27:48;17.87;;;16.27;;
20443;SDS011;10381;53.730;10.010;2023-04-24T05:31:49;18.58;;;16.88;;
20443;SDS011;10381;53.730;10.010;2023-04-24T05:35:49;18.98;;;17.27;;
20443;SDS011;10381;53.730;10.010;2023-04-24T05:39:50;18.13;;;16.50;;
20443;SDS011;10381;53.730;10.010;2023-04-24T05:43:50;18.80;;;17.10;;
20443;SDS011;10381;53.730;10.010;2023-04-24T05:47:51;18.15;;;16.55;;
20443;SDS011;10381;53.730;10.010;2023-04-24T05:51:52;18.35;;;16.75;;
20443;SDS011;10381;53.730;10.010;2023-04-24T05:55:52;16.53;;;15.17;;
20443;SDS011;10381;53.730;10.010;2023-04-24T05:59:52;17.53;;;15.73;;
20443;SDS011;10381;53.730;10.010;2023-04-24T06:03:53;17.53;;;15.93;;
20443;SDS011;10381;53.730;10.010;2023-04-24T06:07:54;17.13;;;15.52;;
20443;SDS011;10381;53.730;10.010;2023-04-24T06:11:54;17.13;;;15.63;;
20443;SDS011;10381;53.730;10.010;2023-04-24T06:15:56;16.70;;;15.20;;
20443;SDS011;10381;53.730;10.010;2023-04-24T06:19:56;17.42;;;15.85;;
20443;SDS011;10381;53.730;10.010;2023-04-24T06:23:57;17.03;;;15.53;;
20443;SDS011;10381;53.730;10.010;2023-04-24T06:27:58;17.10;;;15.60;;
20443;SDS011;10381;53.730;10.010;2023-04-24T06:31:58;17.23;;;15.73;;
20443;SDS011;10381;53.730;10.010;2023-04-24T06:35:58;17.90;;;16.30;;
20443;SDS011;10381;53.730;10.010;2023-04-24T06:39:59;16.38;;;14.98;;
20443;SDS011;10381;53.730;10.010;2023-04-24T06:43:59;17.33;;;15.82;;
20443;SDS011;10381;53.730;10.010;2023-04-24T06:48:00;16.43;;;14.80;;
20443;SDS011;10381;53.730;10.010;2023-04-24T06:52:00;16.00;;;14.48;;
20443;SDS011;10381;53.730;10.010;2023-04-24T06:56:00;15.83;;;14.43;;
20443;SDS011;10381;53.730;10.010;2023-04-24T07:00:01;15.57;;;14.23;;
20443;SDS011;10381;53.730;10.010;2023-04-24T07:04:01;15.90;;;14.52;;
20443;SDS011;10381;53.730;10.010;2023-04-24T07:08:01;16.53;;;15.07;;
20443;SDS011;10381;53.730;10.010;2023-04-24T07:12:02;16.10;;;14.70;;
20443;SDS011;10381;53.730;10.010;2023-04-24T07:16:03;15.57;;;14.30;;
20443;SDS011;10381;53.730;10.010;2023-04-24T07:20:04;15.55;;;14.25;;
20443;SDS011;10381;53.730;10.010;2023-04-24T07:24:05;16.70;;;15.20;;
20443;SDS011;10381;53.730;10.010;2023-04-24T07:28:09;17.63;;;15.77;;
20443;SDS011;10381;53.730;10.010;2023-04-24T07:32:09;16.60;;;15.10;;
20443;SDS011;10381;53.730;10.010;2023-04-24T07:36:10;17.58;;;15.57;;
20443;SDS011;10381;53.730;10.010;2023-04-24T07:40:15;17.60;;;15.90;;
20443;SDS011;10381;53.730;10.010;2023-04-24T07:44:15;17.95;;;16.25;;
20443;SDS011;10381;53.730;10.010;2023-04-24T07:48:16;15.20;;;13.80;;
20443;SDS011;10381;53.730;10.010;2023-04-24T07:52:17;17.60;;;15.80;;
20443;SDS011;10381;53.730;10.010;2023-04-24T07:56:18;17.77;;;16.07;;
20443;SDS011;10381;53.730;10.010;2023-04-24T08:00:18;17.42;;;15.75;;
20443;SDS011;10381;53.730;10.010;2023-04-24T08:04:19;18.65;;;16.80;;
20443;SDS011;10381;53.730;10.010;2023-04-24T08:08:21;20.23;;;16.20;;
20443;SDS011;10381;53.730;10.010;2023-04-24T08:12:22;18.75;;;16.70;;
20443;SDS011;10381;53.730;10.010;2023-04-24T08:16:23;21.50;;;17.97;;
20443;SDS011;10381;53.730;10.010;2023-04-24T08:20:23;19.25;;;17.20;;
20443;SDS011;10381;53.730;10.010;2023-04-24T08:24:24;18.33;;;16.42;;
20443;SDS011;10381;53.730;10.010;2023-04-24T08:28:24;22.50;;;17.10;;
20443;SDS011;10381;53.730;10.010;2023-04-24T08:32:26;20.10;;;17.70;;
20443;SDS011;10381;53.730;10.010;2023-04-24T08:36:29;22.52;;;18.27;;
20443;SDS011;10381;53.730;10.010;2023-04-24T08:40:30;19.48;;;17.50;;
20443;SDS011;10381;53.730;10.010;2023-04-24T08:44:34;18.30;;;16.50;;
20443;SDS011;10381;53.730;10.010;2023-04-24T08:48:36;17.75;;;15.68;;
20443;SDS011;10381;53.730;10.010;2023-04-24T08:52:37;17.73;;;16.05;;
20443;SDS011;10381;53.730;10.010;2023-04-24T08:56:38;18.23;;;16.53;;
20443;SDS011;10381;53.730;10.010;2023-04-24T09:00:40;18.25;;;16.45;;
20443;SDS011;10381;53.730;10.010;2023-04-24T09:04:46;22.25;;;17.48;;
20443;SDS011;10381;53.730;10.010;2023-04-24T09:08:47;19.23;;;16.88;;
20443;SDS011;10381;53.730;10.010;2023-04-24T09:12:51;21.35;;;17.77;;
20443;SDS011;10381;53.730;10.010;2023-04-24T09:16:52;20.25;;;18.02;;
20443;SDS011;10381;53.730;10.010;2023-04-24T09:21:07;20.33;;;17.93;;
20443;SDS011;10381;53.730;10.010;2023-04-24T09:25:09;21.73;;;18.40;;
20443;SDS011;10381;53.730;10.010;2023-04-24T09:29:15;21.48;;;18.42;;
20443;SDS011;10381;53.730;10.010;2023-04-24T09:33:17;21.70;;;18.73;;
20443;SDS011;10381;53.730;10.010;2023-04-24T09:37:27;21.07;;;18.50;;
20443;SDS011;10381;53.730;10.010;2023-04-24T09:41:29;21.48;;;18.38;;
20443;SDS011;10381;53.730;10.010;2023-04-24T09:45:35;23.13;;;18.90;;
20443;SDS011;10381;53.730;10.010;2023-04-24T09:49:37;23.98;;;18.48;;
20443;SDS011;10381;53.730;10.010;2023-04-24T09:53:39;20.48;;;18.00;;
20443;SDS011;10381;53.730;10.010;2023-04-24T09:57:56;21.77;;;18.13;;
20443;SDS011;10381;53.730;10.010;2023-04-24T10:01:57;20.10;;;18.00;;
20443;SDS011;10381;53.730;10.010;2023-04-24T10:05:59;19.27;;;16.80;;
20443;SDS011;10381;53.730;10.010;2023-04-24T10:10:01;20.63;;;17.73;;
20443;SDS011;10381;53.730;10.010;2023-04-24T10:14:01;18.80;;;16.90;;
20443;SDS011;10381;53.730;10.010;2023-04-24T10:18:01;19.63;;;17.53;;
20443;SDS011;10381;53.730;10.010;2023-04-24T10:22:03;21.10;;;18.80;;
20443;SDS011;10381;53.730;10.010;2023-04-24T10:26:04;29.85;;;19.20;;
20443;SDS011;10381;53.730;10.010;2023-04-24T10:30:05;23.88;;;20.13;;
20443;SDS011;10381;53.730;10.010;2023-04-24T10:34:08;22.55;;;19.45;;
20443;SDS011;10381;53.730;10.010;2023-04-24T10:38:13;24.23;;;20.35;;
20443;SDS011;10381;53.730;10.010;2023-04-24T10:42:16;27.13;;;21.35;;
20443;SDS011;10381;53.730;10.010;2023-04-24T10:46:19;24.90;;;20.90;;
20443;SDS011;10381;53.730;10.010;2023-04-24T10:50:21;26.33;;;21.50;;
20443;SDS011;10381;53.730;10.010;2023-04-24T10:54:28;27.52;;;21.63;;
20443;SDS011;10381;53.730;10.010;2023-04-24T11:02:45;26.77;;;22.40;;
20443;SDS011;10381;53.730;10.010;2023-04-24T11:06:50;29.17;;;21.50;;
20443;SDS011;10381;53.730;10.010;2023-04-24T11:10:59;26.48;;;22.05;;
20443;SDS011;10381;53.730;10.010;2023-04-24T11:15:04;27.77;;;22.70;;
20443;SDS011;10381;53.730;10.010;2023-04-24T11:19:17;33.35;;;22.85;;
20443;SDS011;10381;53.730;10.010;2023-04-24T11:23:20;29.92;;;23.27;;
20443;SDS011;10381;53.730;10.010;2023-04-24T11:27:21;27.60;;;21.73;;
20443;SDS011;10381;53.730;10.010;2023-04-24T11:31:37;31.27;;;23.00;;
20443;SDS011;10381;53.730;10.010;2023-04-24T11:35:39;28.38;;;20.63;;
20443;SDS011;10381;53.730;10.010;2023-04-24T11:39:40;28.20;;;22.02;;
20443;SDS011;10381;53.730;10.010;2023-04-24T11:43:41;30.13;;;22.38;;
20443;SDS011;10381;53.730;10.010;2023-04-24T11:47:42;28.35;;;20.98;;
20443;SDS011;10381;53.730;10.010;2023-04-24T11:51:43;26.77;;;19.90;;
20443;SDS011;10381;53.730;10.010;2023-04-24T11:55:44;25.53;;;20.23;;
20443;SDS011;10381;53.730;10.010;2023-04-24T11:59:44;29.75;;;22.10;;
20443;SDS011;10381;53.730;10.010;2023-04-24T12:03:51;27.97;;;20.37;;
20443;SDS011;10381;53.730;10.010;2023-04-24T12:07:59;32.30;;;22.00;;
20443;SDS011;10381;53.730;10.010;2023-04-24T12:12:00;26.65;;;20.45;;
20443;SDS011;10381;53.730;10.010;2023-04-24T12:16:03;24.17;;;17.98;;
20443;SDS011;10381;53.730;10.010;2023-04-24T12:20:06;25.67;;;18.33;;
20443;SDS011;10381;53.730;10.010;2023-04-24T12:24:08;23.75;;;18.17;;
20443;SDS011;10381;53.730;10.010;2023-04-24T12:28:09;18.90;;;16.17;;
20443;SDS011;10381;53.730;10.010;2023-04-24T12:32:17;18.58;;;15.70;;
20443;SDS011;10381;53.730;10.010;2023-04-24T12:36:17;23.95;;;15.98;;
20443;SDS011;10381;53.730;10.010;2023-04-24T12:40:18;17.37;;;14.23;;
20443;SDS011;10381;53.730;10.010;2023-04-24T12:44:19;16.95;;;14.20;;
20443;SDS011;10381;53.730;10.010;2023-04-24T12:48:20;18.27;;;14.73;;
20443;SDS011;10381;53.730;10.010;2023-04-24T12:52:22;24.27;;;15.05;;
20443;SDS011;10381;53.730;10.010;2023-04-24T12:56:23;17.70;;;14.82;;
20443;SDS011;10381;53.730;10.010;2023-04-24T13:00:24;21.75;;;15.77;;
20443;SDS011;10381;53.730;10.010;2023-04-24T13:04:24;22.98;;;16.20;;
20443;SDS011;10381;53.730;10.010;2023-04-24T13:08:24;20.38;;;15.82;;
20443;SDS011;10381;53.730;10.010;2023-04-24T13:12:25;25.53;;;16.30;;
20443;SDS011;10381;53.730;10.010;2023-04-24T13:16:26;29.05;;;15.05;;
20443;SDS011;10381;53.730;10.010;2023-04-24T13:20:26;19.77;;;16.00;;
20443;SDS011;10381;53.730;10.010;2023-04-24T13:24:26;20.73;;;15.87;;
20443;SDS011;10381;53.730;10.010;2023-04-24T13:28:27;18.73;;;15.30;;
20443;SDS011;10381;53.730;10.010;2023-04-24T13:32:28;19.17;;;15.43;;
20443;SDS011;10381;53.730;10.010;2023-04-24T13:36:29;24.13;;;16.52;;
20443;SDS011;10381;53.730;10.010;2023-04-24T13:40:30;22.67;;;16.15;;
20443;SDS011;10381;53.730;10.010;2023-04-24T13:44:30;22.37;;;16.97;;
20443;SDS011;10381;53.730;10.010;2023-04-24T13:48:30;22.97;;;18.03;;
20443;SDS011;10381;53.730;10.010;2023-04-24T13:52:31;24.90;;;18.50;;
20443;SDS011;10381;53.730;10.010;2023-04-24T13:56:31;29.23;;;19.57;;
20443;SDS011;10381;53.730;10.010;2023-04-24T14:00:31;27.97;;;19.43;;
20443;SDS011;10381;53.730;10.010;2023-04-24T14:04:32;22.63;;;18.67;;
20443;SDS011;10381;53.730;10.010;2023-04-24T14:08:32;23.97;;;18.27;;
20443;SDS011;10381;53.730;10.010;2023-04-24T14:12:32;25.55;;;18.40;;
20443;SDS011;10381;53.730;10.010;2023-04-24T14:16:33;20.75;;;18.42;;
20443;SDS011;10381;53.730;10.010;2023-04-24T14:20:34;25.38;;;18.90;;
20443;SDS011;10381;53.730;10.010;2023-04-24T14:24:35;23.08;;;17.42;;
20443;SDS011;10381;53.730;10.010;2023-04-24T14:28:36;19.42;;;16.75;;
20443;SDS011;10381;53.730;10.010;2023-04-24T14:32:37;24.20;;;17.10;;
20443;SDS011;10381;53.730;10.010;2023-04-24T14:36:38;23.63;;;18.27;;
20443;SDS011;10381;53.730;10.010;2023-04-24T14:40:40;25.10;;;19.13;;
20443;SDS011;10381;53.730;10.010;2023-04-24T14:44:40;22.83;;;18.25;;
20443;SDS011;10381;53.730;10.010;2023-04-24T14:48:40;18.33;;;16.53;;
20443;SDS011;10381;53.730;10.010;2023-04-24T14:52:41;18.47;;;16.50;;
20443;SDS011;10381;53.730;10.010;2023-04-24T14:56:41;17.93;;;16.13;;
20443;SDS011;10381;53.730;10.010;2023-04-24T15:00:43;18.55;;;16.65;;
20443;SDS011;10381;53.730;10.010;2023-04-24T15:04:44;20.33;;;18.00;;
20443;SDS011;10381;53.730;10.010;2023-04-24T15:08:44;18.53;;;15.13;;
20443;SDS011;10381;53.730;10.010;2023-04-24T15:12:44;16.25;;;14.60;;
20443;SDS011;10381;53.730;10.010;2023-04-24T15:16:45;17.43;;;15.40;;
20443;SDS011;10381;53.730;10.010;2023-04-24T15:20:45;16.97;;;15.17;;
20443;SDS011;10381;53.730;10.010;2023-04-24T15:24:45;20.58;;;15.15;;
20443;SDS011;10381;53.730;10.010;2023-04-24T15:28:46;17.77;;;16.03;;
20443;SDS011;10381;53.730;10.010;2023-04-24T15:32:49;16.00;;;14.43;;
20443;SDS011;10381;53.730;10.010;2023-04-24T15:36:49;15.18;;;13.77;;
20443;SDS011;10381;53.730;10.010;2023-04-24T15:40:50;16.07;;;14.67;;
20443;SDS011;10381;53.730;10.010;2023-04-24T15:44:50;16.50;;;15.10;;
20443;SDS011;10381;53.730;10.010;2023-04-24T15:48:50;19.23;;;17.23;;
20443;SDS011;10381;53.730;10.010;2023-04-24T15:52:51;19.87;;;18.03;;
20443;SDS011;10381;53.730;10.010;2023-04-24T15:56:51;23.27;;;20.77;;
20443;SDS011;10381;53.730;10.010;2023-04-24T16:00:51;23.53;;;21.23;;
20443;SDS011;10381;53.730;10.010;2023-04-24T16:04:53;23.90;;;21.40;;
20443;SDS011;10381;53.730;10.010;2023-04-24T16:08:53;26.08;;;23.35;;
20443;SDS011;10381;53.730;10.010;2023-04-24T16:12:53;31.63;;;28.17;;
20443;SDS011;10381;53.730;10.010;2023-04-24T16:16:54;44.25;;;39.60;;
20443;SDS011;10381;53.730;10.010;2023-04-24T16:20:55;125.90;;;112.90;;
20443;SDS011;10381;53.730;10.010;2023-04-24T16:24:55;120.70;;;108.93;;
20443;SDS011;10381;53.730;10.010;2023-04-24T16:28:57;121.97;;;110.60;;
20443;SDS011;10381;53.730;10.010;2023-04-24T16:32:57;166.43;;;150.95;;
20443;SDS011;10381;53.730;10.010;2023-04-24T16:36:58;168.57;;;153.07;;
20443;SDS011;10381;53.730;10.010;2023-04-24T16:40:58;180.73;;;164.67;;
20443;SDS011;10381;53.730;10.010;2023-04-24T16:44:58;214.43;;;195.43;;
20443;SDS011;10381;53.730;10.010;2023-04-24T16:48:58;233.10;;;212.47;;
20443;SDS011;10381;53.730;10.010;2023-04-24T16:52:59;248.07;;;226.33;;
20443;SDS011;10381;53.730;10.010;2023-04-24T16:56:59;237.95;;;217.18;;
20443;SDS011;10381;53.730;10.010;2023-04-24T17:01:00;240.23;;;219.45;;
20443;SDS011;10381;53.730;10.010;2023-04-24T17:05:00;266.05;;;242.45;;
20443;SDS011;10381;53.730;10.010;2023-04-24T17:09:00;299.63;;;268.97;;
20443;SDS011;10381;53.730;10.010;2023-04-24T17:13:01;291.77;;;265.25;;
20443;SDS011;10381;53.730;10.010;2023-04-24T17:17:01;309.02;;;280.52;;
20443;SDS011;10381;53.730;10.010;2023-04-24T17:21:02;308.70;;;280.77;;
20443;SDS011;10381;53.730;10.010;2023-04-24T17:25:02;294.75;;;267.98;;
20443;SDS011;10381;53.730;10.010;2023-04-24T17:29:03;299.45;;;271.52;;
20443;SDS011;10381;53.730;10.010;2023-04-24T17:33:03;307.00;;;278.58;;
20443;SDS011;10381;53.730;10.010;2023-04-24T17:37:03;298.53;;;271.03;;
20443;SDS011;10381;53.730;10.010;2023-04-24T17:41:04;259.10;;;235.40;;
20443;SDS011;10381;53.730;10.010;2023-04-24T17:45:04;280.33;;;255.07;;
20443;SDS011;10381;53.730;10.010;2023-04-24T17:49:05;260.77;;;236.38;;
20443;SDS011;10381;53.730;10.010;2023-04-24T17:53:06;260.43;;;236.20;;
20443;SDS011;10381;53.730;10.010;2023-04-24T17:57:06;267.38;;;242.57;;
20443;SDS011;10381;53.730;10.010;2023-04-24T18:01:06;259.00;;;235.17;;
20443;SDS011;10381;53.730;10.010;2023-04-24T18:05:07;252.37;;;228.93;;
20443;SDS011;10381;53.730;10.010;2023-04-24T18:09:07;246.60;;;223.85;;
20443;SDS011;10381;53.730;10.010;2023-04-24T18:13:08;253.27;;;229.13;;
20443;SDS011;10381;53.730;10.010;2023-04-24T18:17:08;246.90;;;223.35;;
20443;SDS011;10381;53.730;10.010;2023-04-24T18:21:09;232.75;;;210.60;;
20443;SDS011;10381;53.730;10.010;2023-04-24T18:25:09;239.57;;;216.63;;
20443;SDS011;10381;53.730;10.010;2023-04-24T18:29:10;239.55;;;217.30;;
20443;SDS011;10381;53.730;10.010;2023-04-24T18:33:10;243.13;;;220.23;;
20443;SDS011;10381;53.730;10.010;2023-04-24T18:37:10;242.33;;;219.40;;
20443;SDS011;10381;53.730;10.010;2023-04-24T18:41:11;249.10;;;225.63;;
20443;SDS011;10381;53.730;10.010;2023-04-24T18:45:13;251.23;;;226.77;;
20443;SDS011;10381;53.730;10.010;2023-04-24T18:49:13;240.88;;;217.65;;
20443;SDS011;10381;53.730;10.010;2023-04-24T18:53:13;262.47;;;238.30;;
20443;SDS011;10381;53.730;10.010;2023-04-24T18:57:17;260.15;;;235.43;;
20443;SDS011;10381;53.730;10.010;2023-04-24T19:01:17;262.03;;;237.27;;
20443;SDS011;10381;53.730;10.010;2023-04-24T19:05:17;260.58;;;235.85;;
20443;SDS011;10381;53.730;10.010;2023-04-24T19:09:17;267.47;;;243.13;;
20443;SDS011;10381;53.730;10.010;2023-04-24T19:13:18;259.83;;;236.20;;
20443;SDS011;10381;53.730;10.010;2023-04-24T19:17:19;292.13;;;265.27;;
20443;SDS011;10381;53.730;10.010;2023-04-24T19:21:23;279.50;;;253.50;;
20443;SDS011;10381;53.730;10.010;2023-04-24T19:25:23;289.52;;;262.38;;
20443;SDS011;10381;53.730;10.010;2023-04-24T19:29:24;302.70;;;274.45;;
20443;SDS011;10381;53.730;10.010;2023-04-24T19:33:24;288.80;;;262.13;;
20443;SDS011;10381;53.730;10.010;2023-04-24T19:37:25;284.67;;;258.48;;
20443;SDS011;10381;53.730;10.010;2023-04-24T19:41:25;271.70;;;247.05;;
20443;SDS011;10381;53.730;10.010;2023-04-24T19:45:25;236.37;;;214.93;;
20443;SDS011;10381;53.730;10.010;2023-04-24T19:49:26;219.77;;;199.33;;
20443;SDS011;10381;53.730;10.010;2023-04-24T19:53:26;197.73;;;179.83;;
20443;SDS011;10381;53.730;10.010;2023-04-24T19:57:26;199.77;;;181.40;;
20443;SDS011;10381;53.730;10.010;2023-04-24T20:01:27;182.27;;;164.80;;
20443;SDS011;10381;53.730;10.010;2023-04-24T20:05:27;149.52;;;135.27;;
20443;SDS011;10381;53.730;10.010;2023-04-24T20:09:27;123.33;;;112.40;;
20443;SDS011;10381;53.730;10.010;2023-04-24T20:13:28;99.90;;;90.70;;
20443;SDS011;10381;53.730;10.010;2023-04-24T20:17:30;87.10;;;78.85;;
20443;SDS011;10381;53.730;10.010;2023-04-24T20:21:31;76.67;;;69.47;;
20443;SDS011;10381;53.730;10.010;2023-04-24T20:25:31;72.80;;;65.97;;
20443;SDS011;10381;53.730;10.010;2023-04-24T20:29:32;64.88;;;58.58;;
20443;SDS011;10381;53.730;10.010;2023-04-24T20:33:33;62.83;;;56.42;;
20443;SDS011;10381;53.730;10.010;2023-04-24T20:37:36;56.90;;;51.25;;
20443;SDS011;10381;53.730;10.010;2023-04-24T20:41:37;61.38;;;54.08;;
20443;SDS011;10381;53.730;10.010;2023-04-24T20:45:37;59.75;;;52.03;;
20443;SDS011;10381;53.730;10.010;2023-04-24T20:49:37;57.07;;;51.57;;
20443;SDS011;10381;53.730;10.010;2023-04-24T20:53:38;50.07;;;45.37;;
20443;SDS011;10381;53.730;10.010;2023-04-24T20:57:38;47.67;;;43.03;;
20443;SDS011;10381;53.730;10.010;2023-04-24T21:01:38;47.63;;;42.80;;
20443;SDS011;10381;53.730;10.010;2023-04-24T21:05:39;46.95;;;39.45;;
20443;SDS011;10381;53.730;10.010;2023-04-24T21:09:39;44.90;;;40.63;;
20443;SDS011;10381;53.730;10.010;2023-04-24T21:13:39;48.57;;;44.03;;
20443;SDS011;10381;53.730;10.010;2023-04-24T21:17:40;45.05;;;38.60;;
20443;SDS011;10381;53.730;10.010;2023-04-24T21:21:40;41.00;;;36.77;;
20443;SDS011;10381;53.730;10.010;2023-04-24T21:25:40;41.20;;;35.13;;
20443;SDS011;10381;53.730;10.010;2023-04-24T21:29:41;37.80;;;33.72;;
20443;SDS011;10381;53.730;10.010;2023-04-24T21:33:41;36.45;;;32.65;;
20443;SDS011;10381;53.730;10.010;2023-04-24T21:37:41;35.93;;;32.33;;
20443;SDS011;10381;53.730;10.010;2023-04-24T21:41:42;38.17;;;34.22;;
20443;SDS011;10381;53.730;10.010;2023-04-24T21:45:42;35.42;;;31.83;;
20443;SDS011;10381;53.730;10.010;2023-04-24T21:49:42;33.58;;;30.17;;
20443;SDS011;10381;53.730;10.010;2023-04-24T21:53:43;39.43;;;31.07;;
20443;SDS011;10381;53.730;10.010;2023-04-24T21:57:43;35.23;;;31.53;;
20443;SDS011;10381;53.730;10.010;2023-04-24T22:01:43;32.58;;;29.15;;
20443;SDS011;10381;53.730;10.010;2023-04-24T22:05:44;33.55;;;30.15;;
20443;SDS011;10381;53.730;10.010;2023-04-24T22:09:44;41.47;;;33.10;;
20443;SDS011;10381;53.730;10.010;2023-04-24T22:13:45;41.70;;;37.55;;
20443;SDS011;10381;53.730;10.010;2023-04-24T22:17:45;44.83;;;39.92;;
20443;SDS011;10381;53.730;10.010;2023-04-24T22:21:45;47.30;;;42.33;;
20443;SDS011;10381;53.730;10.010;2023-04-24T22:25:46;72.68;;;64.47;;
20443;SDS011;10381;53.730;10.010;2023-04-24T22:29:46;64.87;;;58.10;;
20443;SDS011;10381;53.730;10.010;2023-04-24T22:33:46;229.57;;;206.17;;
20443;SDS011;10381;53.730;10.010;2023-04-24T22:37:52;312.88;;;281.10;;
20443;SDS011;10381;53.730;10.010;2023-04-24T22:41:53;391.58;;;354.40;;
20443;SDS011;10381;53.730;10.010;2023-04-24T22:45:54;395.30;;;358.60;;
20443;SDS011;10381;53.730;10.010;2023-04-24T22:49:54;432.83;;;393.40;;
20443;SDS011;10381;53.730;10.010;2023-04-24T22:53:56;429.45;;;389.42;;
20443;SDS011;10381;53.730;10.010;2023-04-24T22:57:56;455.63;;;414.40;;
20443;SDS011;10381;53.730;10.010;2023-04-24T23:01:57;448.88;;;408.00;;